Terminal Aerodrome Forecast
Issued by NWS Sterling, VA

Current Version | Previous Version | Text Only | Print | Product List | Glossary On
Versions: 1 2 3 4 5 6 7 8 9 10 11 12 13 14 15 16 17 18 19 20 21 22 23
979
FTUS41 KLWX 172320
TAFBWI
TAF
KBWI 172320Z 1800/1906 VRB03KT P6SM OVC070
     FM180900 00000KT 6SM BR SCT050
     FM181200 27004KT P6SM SCT050
     FM190000 23004KT P6SM BKN040=

USA.gov is the U.S. government's official web portal to all federal, state and local government web resources and services.